sensor_id;sensor_type;location;lat;lon;timestamp;P1;durP1;ratioP1;P2;durP2;ratioP2
19225;SDS011;9747;48.536;12.522;2023-04-25T00:01:02;0.80;;;0.80;;
19225;SDS011;9747;48.536;12.522;2023-04-25T00:03:30;1.10;;;1.10;;
19225;SDS011;9747;48.536;12.522;2023-04-25T00:05:58;1.05;;;1.00;;
19225;SDS011;9747;48.536;12.522;2023-04-25T00:08:28;0.75;;;0.75;;
19225;SDS011;9747;48.536;12.522;2023-04-25T00:10:56;0.93;;;0.80;;
19225;SDS011;9747;48.536;12.522;2023-04-25T00:13:24;0.80;;;0.80;;
19225;SDS011;9747;48.536;12.522;2023-04-25T00:15:52;0.93;;;0.90;;
19225;SDS011;9747;48.536;12.522;2023-04-25T00:18:19;0.90;;;0.90;;
19225;SDS011;9747;48.536;12.522;2023-04-25T00:20:47;0.80;;;0.80;;
19225;SDS011;9747;48.536;12.522;2023-04-25T00:23:15;0.80;;;0.80;;
19225;SDS011;9747;48.536;12.522;2023-04-25T00:25:44;0.90;;;0.90;;
19225;SDS011;9747;48.536;12.522;2023-04-25T00:28:12;1.13;;;1.13;;
19225;SDS011;9747;48.536;12.522;2023-04-25T00:30:40;0.93;;;0.93;;
19225;SDS011;9747;48.536;12.522;2023-04-25T00:33:08;1.00;;;1.00;;
19225;SDS011;9747;48.536;12.522;2023-04-25T00:35:36;1.00;;;1.00;;
19225;SDS011;9747;48.536;12.522;2023-04-25T00:38:04;1.00;;;0.90;;
19225;SDS011;9747;48.536;12.522;2023-04-25T00:40:31;0.90;;;0.90;;
19225;SDS011;9747;48.536;12.522;2023-04-25T00:43:00;0.90;;;0.90;;
19225;SDS011;9747;48.536;12.522;2023-04-25T00:45:28;0.90;;;0.90;;
19225;SDS011;9747;48.536;12.522;2023-04-25T00:47:56;0.90;;;0.90;;
19225;SDS011;9747;48.536;12.522;2023-04-25T00:50:24;0.90;;;0.90;;
19225;SDS011;9747;48.536;12.522;2023-04-25T00:52:51;1.00;;;1.00;;
19225;SDS011;9747;48.536;12.522;2023-04-25T00:55:19;1.10;;;1.10;;
19225;SDS011;9747;48.536;12.522;2023-04-25T00:57:46;0.82;;;0.82;;
19225;SDS011;9747;48.536;12.522;2023-04-25T01:00:17;1.00;;;1.00;;
19225;SDS011;9747;48.536;12.522;2023-04-25T01:02:46;0.90;;;0.90;;
19225;SDS011;9747;48.536;12.522;2023-04-25T01:05:14;0.90;;;0.90;;
19225;SDS011;9747;48.536;12.522;2023-04-25T01:07:44;1.08;;;0.90;;
19225;SDS011;9747;48.536;12.522;2023-04-25T01:10:12;1.00;;;1.00;;
19225;SDS011;9747;48.536;12.522;2023-04-25T01:12:40;1.20;;;1.20;;
19225;SDS011;9747;48.536;12.522;2023-04-25T01:15:08;1.52;;;1.10;;
19225;SDS011;9747;48.536;12.522;2023-04-25T01:17:37;1.00;;;1.00;;
19225;SDS011;9747;48.536;12.522;2023-04-25T01:20:06;1.00;;;1.00;;
19225;SDS011;9747;48.536;12.522;2023-04-25T01:22:37;1.42;;;1.00;;
19225;SDS011;9747;48.536;12.522;2023-04-25T01:25:05;1.00;;;1.00;;
19225;SDS011;9747;48.536;12.522;2023-04-25T01:27:33;1.10;;;1.10;;
19225;SDS011;9747;48.536;12.522;2023-04-25T01:30:00;1.10;;;1.08;;
19225;SDS011;9747;48.536;12.522;2023-04-25T01:32:29;1.10;;;1.10;;
19225;SDS011;9747;48.536;12.522;2023-04-25T01:35:03;1.05;;;1.05;;
19225;SDS011;9747;48.536;12.522;2023-04-25T01:37:34;1.17;;;1.10;;
19225;SDS011;9747;48.536;12.522;2023-04-25T01:40:04;1.00;;;1.00;;
19225;SDS011;9747;48.536;12.522;2023-04-25T01:42:34;1.00;;;1.00;;
19225;SDS011;9747;48.536;12.522;2023-04-25T01:45:03;1.10;;;1.10;;
19225;SDS011;9747;48.536;12.522;2023-04-25T01:47:32;1.10;;;1.10;;
19225;SDS011;9747;48.536;12.522;2023-04-25T01:50:01;1.27;;;1.10;;
19225;SDS011;9747;48.536;12.522;2023-04-25T01:52:29;1.00;;;1.00;;
19225;SDS011;9747;48.536;12.522;2023-04-25T01:54:58;0.90;;;0.90;;
19225;SDS011;9747;48.536;12.522;2023-04-25T01:57:29;0.98;;;0.98;;
19225;SDS011;9747;48.536;12.522;2023-04-25T01:59:57;1.10;;;0.90;;
19225;SDS011;9747;48.536;12.522;2023-04-25T02:02:40;0.98;;;0.98;;
19225;SDS011;9747;48.536;12.522;2023-04-25T02:05:20;1.00;;;1.00;;
19225;SDS011;9747;48.536;12.522;2023-04-25T02:07:48;0.93;;;0.93;;
19225;SDS011;9747;48.536;12.522;2023-04-25T02:10:17;1.00;;;1.00;;
19225;SDS011;9747;48.536;12.522;2023-04-25T02:13:10;1.02;;;1.02;;
19225;SDS011;9747;48.536;12.522;2023-04-25T02:15:57;0.90;;;0.90;;
19225;SDS011;9747;48.536;12.522;2023-04-25T02:18:25;1.00;;;1.00;;
19225;SDS011;9747;48.536;12.522;2023-04-25T02:20:52;1.10;;;1.10;;
19225;SDS011;9747;48.536;12.522;2023-04-25T02:23:20;1.00;;;1.00;;
19225;SDS011;9747;48.536;12.522;2023-04-25T02:25:49;1.05;;;1.00;;
19225;SDS011;9747;48.536;12.522;2023-04-25T02:28:16;1.77;;;0.90;;
19225;SDS011;9747;48.536;12.522;2023-04-25T02:30:43;1.85;;;1.10;;
19225;SDS011;9747;48.536;12.522;2023-04-25T02:33:11;0.90;;;0.90;;
19225;SDS011;9747;48.536;12.522;2023-04-25T02:35:38;0.98;;;0.95;;
19225;SDS011;9747;48.536;12.522;2023-04-25T02:38:06;1.00;;;1.00;;
19225;SDS011;9747;48.536;12.522;2023-04-25T02:40:33;1.00;;;1.00;;
19225;SDS011;9747;48.536;12.522;2023-04-25T02:43:02;0.93;;;0.93;;
19225;SDS011;9747;48.536;12.522;2023-04-25T02:45:30;1.50;;;1.02;;
19225;SDS011;9747;48.536;12.522;2023-04-25T02:47:57;1.20;;;1.10;;
19225;SDS011;9747;48.536;12.522;2023-04-25T02:50:25;1.13;;;1.00;;
19225;SDS011;9747;48.536;12.522;2023-04-25T02:52:52;1.13;;;1.13;;
19225;SDS011;9747;48.536;12.522;2023-04-25T02:55:26;1.10;;;1.00;;
19225;SDS011;9747;48.536;12.522;2023-04-25T02:57:55;0.90;;;0.90;;
19225;SDS011;9747;48.536;12.522;2023-04-25T03:00:38;1.17;;;1.17;;
19225;SDS011;9747;48.536;12.522;2023-04-25T03:03:05;0.88;;;0.88;;
19225;SDS011;9747;48.536;12.522;2023-04-25T03:05:32;0.82;;;0.82;;
19225;SDS011;9747;48.536;12.522;2023-04-25T03:08:00;0.90;;;0.90;;
19225;SDS011;9747;48.536;12.522;2023-04-25T03:10:30;1.00;;;1.00;;
19225;SDS011;9747;48.536;12.522;2023-04-25T03:13:02;1.38;;;1.27;;
19225;SDS011;9747;48.536;12.522;2023-04-25T03:15:29;1.00;;;1.00;;
19225;SDS011;9747;48.536;12.522;2023-04-25T03:17:58;1.10;;;1.10;;
19225;SDS011;9747;48.536;12.522;2023-04-25T03:20:26;1.10;;;1.10;;
19225;SDS011;9747;48.536;12.522;2023-04-25T03:22:53;1.00;;;1.00;;
19225;SDS011;9747;48.536;12.522;2023-04-25T03:25:21;0.80;;;0.80;;
19225;SDS011;9747;48.536;12.522;2023-04-25T03:27:48;0.90;;;0.90;;
19225;SDS011;9747;48.536;12.522;2023-04-25T03:30:16;0.95;;;0.95;;
19225;SDS011;9747;48.536;12.522;2023-04-25T03:32:44;1.05;;;1.05;;
19225;SDS011;9747;48.536;12.522;2023-04-25T03:35:16;0.80;;;0.80;;
19225;SDS011;9747;48.536;12.522;2023-04-25T03:37:44;1.00;;;0.90;;
19225;SDS011;9747;48.536;12.522;2023-04-25T03:40:15;1.38;;;0.88;;
19225;SDS011;9747;48.536;12.522;2023-04-25T03:43:05;0.90;;;0.90;;
19225;SDS011;9747;48.536;12.522;2023-04-25T03:45:34;0.93;;;0.93;;
19225;SDS011;9747;48.536;12.522;2023-04-25T03:48:02;1.10;;;0.80;;
19225;SDS011;9747;48.536;12.522;2023-04-25T03:50:31;0.82;;;0.82;;
19225;SDS011;9747;48.536;12.522;2023-04-25T03:52:59;0.98;;;0.98;;
19225;SDS011;9747;48.536;12.522;2023-04-25T03:55:40;0.90;;;0.90;;
19225;SDS011;9747;48.536;12.522;2023-04-25T03:58:08;0.90;;;0.90;;
19225;SDS011;9747;48.536;12.522;2023-04-25T04:00:36;1.00;;;1.00;;
19225;SDS011;9747;48.536;12.522;2023-04-25T04:03:04;2.80;;;1.10;;
19225;SDS011;9747;48.536;12.522;2023-04-25T04:05:33;1.15;;;1.00;;
19225;SDS011;9747;48.536;12.522;2023-04-25T04:08:02;1.00;;;1.00;;
19225;SDS011;9747;48.536;12.522;2023-04-25T04:10:30;1.13;;;1.10;;
19225;SDS011;9747;48.536;12.522;2023-04-25T04:12:58;1.00;;;1.00;;
19225;SDS011;9747;48.536;12.522;2023-04-25T04:15:25;1.15;;;1.10;;
19225;SDS011;9747;48.536;12.522;2023-04-25T04:17:53;2.38;;;1.20;;
19225;SDS011;9747;48.536;12.522;2023-04-25T04:20:21;2.70;;;1.33;;
19225;SDS011;9747;48.536;12.522;2023-04-25T04:22:50;2.67;;;1.33;;
19225;SDS011;9747;48.536;12.522;2023-04-25T04:25:18;4.15;;;1.40;;
19225;SDS011;9747;48.536;12.522;2023-04-25T04:28:09;3.20;;;1.30;;
19225;SDS011;9747;48.536;12.522;2023-04-25T04:30:57;2.38;;;1.00;;
19225;SDS011;9747;48.536;12.522;2023-04-25T04:33:26;1.40;;;1.30;;
19225;SDS011;9747;48.536;12.522;2023-04-25T04:35:58;1.88;;;1.23;;
19225;SDS011;9747;48.536;12.522;2023-04-25T04:38:28;1.90;;;1.17;;
19225;SDS011;9747;48.536;12.522;2023-04-25T04:40:59;4.03;;;1.33;;
19225;SDS011;9747;48.536;12.522;2023-04-25T04:43:45;2.63;;;1.20;;
19225;SDS011;9747;48.536;12.522;2023-04-25T04:46:29;6.43;;;1.50;;
19225;SDS011;9747;48.536;12.522;2023-04-25T04:49:16;4.80;;;1.45;;
19225;SDS011;9747;48.536;12.522;2023-04-25T04:51:57;4.03;;;1.40;;
19225;SDS011;9747;48.536;12.522;2023-04-25T04:54:45;2.15;;;1.30;;
19225;SDS011;9747;48.536;12.522;2023-04-25T04:57:42;3.33;;;1.35;;
19225;SDS011;9747;48.536;12.522;2023-04-25T05:00:29;5.75;;;1.70;;
19225;SDS011;9747;48.536;12.522;2023-04-25T05:03:14;4.10;;;1.50;;
19225;SDS011;9747;48.536;12.522;2023-04-25T05:05:56;2.75;;;1.52;;
19225;SDS011;9747;48.536;12.522;2023-04-25T05:08:34;3.60;;;1.30;;
19225;SDS011;9747;48.536;12.522;2023-04-25T05:11:31;2.22;;;1.30;;
19225;SDS011;9747;48.536;12.522;2023-04-25T05:14:24;2.13;;;1.33;;
19225;SDS011;9747;48.536;12.522;2023-04-25T05:17:07;2.58;;;1.60;;
19225;SDS011;9747;48.536;12.522;2023-04-25T05:20:01;3.45;;;1.50;;
19225;SDS011;9747;48.536;12.522;2023-04-25T05:22:51;2.67;;;1.30;;
19225;SDS011;9747;48.536;12.522;2023-04-25T05:25:40;1.95;;;1.30;;
19225;SDS011;9747;48.536;12.522;2023-04-25T05:28:21;3.67;;;1.30;;
19225;SDS011;9747;48.536;12.522;2023-04-25T05:31:19;1.70;;;1.25;;
19225;SDS011;9747;48.536;12.522;2023-04-25T05:33:56;1.30;;;1.05;;
19225;SDS011;9747;48.536;12.522;2023-04-25T05:36:31;4.25;;;1.30;;
19225;SDS011;9747;48.536;12.522;2023-04-25T05:38:59;1.40;;;1.30;;
19225;SDS011;9747;48.536;12.522;2023-04-25T05:41:48;1.60;;;1.00;;
19225;SDS011;9747;48.536;12.522;2023-04-25T05:44:36;2.53;;;1.30;;
19225;SDS011;9747;48.536;12.522;2023-04-25T05:47:16;2.45;;;1.30;;
19225;SDS011;9747;48.536;12.522;2023-04-25T05:49:57;3.00;;;1.20;;
19225;SDS011;9747;48.536;12.522;2023-04-25T05:52:43;1.77;;;1.20;;
19225;SDS011;9747;48.536;12.522;2023-04-25T05:55:31;2.80;;;1.40;;
19225;SDS011;9747;48.536;12.522;2023-04-25T05:58:06;1.30;;;1.20;;
19225;SDS011;9747;48.536;12.522;2023-04-25T06:00:35;1.75;;;1.23;;
19225;SDS011;9747;48.536;12.522;2023-04-25T06:03:03;2.45;;;1.23;;
19225;SDS011;9747;48.536;12.522;2023-04-25T06:05:32;1.65;;;1.40;;
19225;SDS011;9747;48.536;12.522;2023-04-25T06:08:00;1.27;;;1.23;;
19225;SDS011;9747;48.536;12.522;2023-04-25T06:10:27;1.25;;;1.15;;
19225;SDS011;9747;48.536;12.522;2023-04-25T06:12:55;1.80;;;1.20;;
19225;SDS011;9747;48.536;12.522;2023-04-25T06:15:23;1.33;;;1.17;;
19225;SDS011;9747;48.536;12.522;2023-04-25T06:17:52;2.35;;;1.42;;
19225;SDS011;9747;48.536;12.522;2023-04-25T06:20:19;1.13;;;1.13;;
19225;SDS011;9747;48.536;12.522;2023-04-25T06:22:50;1.58;;;1.40;;
19225;SDS011;9747;48.536;12.522;2023-04-25T06:25:18;2.28;;;1.30;;
19225;SDS011;9747;48.536;12.522;2023-04-25T06:27:45;2.08;;;1.30;;
19225;SDS011;9747;48.536;12.522;2023-04-25T06:30:13;1.50;;;1.40;;
19225;SDS011;9747;48.536;12.522;2023-04-25T06:32:43;1.30;;;1.20;;
19225;SDS011;9747;48.536;12.522;2023-04-25T06:35:12;1.30;;;1.20;;
19225;SDS011;9747;48.536;12.522;2023-04-25T06:37:40;1.58;;;1.20;;
19225;SDS011;9747;48.536;12.522;2023-04-25T06:40:08;3.75;;;1.40;;
19225;SDS011;9747;48.536;12.522;2023-04-25T06:42:36;3.25;;;1.30;;
19225;SDS011;9747;48.536;12.522;2023-04-25T06:45:23;1.50;;;1.23;;
19225;SDS011;9747;48.536;12.522;2023-04-25T06:47:52;1.17;;;1.08;;
19225;SDS011;9747;48.536;12.522;2023-04-25T06:50:21;1.20;;;1.20;;
19225;SDS011;9747;48.536;12.522;2023-04-25T06:52:48;1.95;;;1.27;;
19225;SDS011;9747;48.536;12.522;2023-04-25T06:55:17;1.30;;;1.20;;
19225;SDS011;9747;48.536;12.522;2023-04-25T06:57:58;3.03;;;1.10;;
19225;SDS011;9747;48.536;12.522;2023-04-25T07:01:01;1.00;;;1.00;;
19225;SDS011;9747;48.536;12.522;2023-04-25T07:03:28;1.40;;;1.30;;
19225;SDS011;9747;48.536;12.522;2023-04-25T07:06:01;1.30;;;1.20;;
19225;SDS011;9747;48.536;12.522;2023-04-25T07:08:29;1.33;;;1.23;;
19225;SDS011;9747;48.536;12.522;2023-04-25T07:10:57;1.52;;;1.10;;
19225;SDS011;9747;48.536;12.522;2023-04-25T07:13:25;1.13;;;1.13;;
19225;SDS011;9747;48.536;12.522;2023-04-25T07:15:52;1.17;;;1.17;;
19225;SDS011;9747;48.536;12.522;2023-04-25T07:18:20;1.15;;;0.90;;
19225;SDS011;9747;48.536;12.522;2023-04-25T07:20:48;1.33;;;1.05;;
19225;SDS011;9747;48.536;12.522;2023-04-25T07:23:18;1.23;;;1.10;;
19225;SDS011;9747;48.536;12.522;2023-04-25T07:25:46;1.52;;;1.20;;
19225;SDS011;9747;48.536;12.522;2023-04-25T07:28:19;1.38;;;1.20;;
19225;SDS011;9747;48.536;12.522;2023-04-25T07:30:46;1.15;;;1.15;;
19225;SDS011;9747;48.536;12.522;2023-04-25T07:33:14;1.17;;;1.10;;
19225;SDS011;9747;48.536;12.522;2023-04-25T07:35:41;1.58;;;1.08;;
19225;SDS011;9747;48.536;12.522;2023-04-25T07:38:10;1.25;;;1.13;;
19225;SDS011;9747;48.536;12.522;2023-04-25T07:40:39;1.08;;;0.98;;
19225;SDS011;9747;48.536;12.522;2023-04-25T07:43:09;1.10;;;1.10;;
19225;SDS011;9747;48.536;12.522;2023-04-25T07:45:47;0.98;;;0.98;;
19225;SDS011;9747;48.536;12.522;2023-04-25T07:48:17;1.10;;;1.05;;
19225;SDS011;9747;48.536;12.522;2023-04-25T07:50:46;1.70;;;1.25;;
19225;SDS011;9747;48.536;12.522;2023-04-25T07:53:14;1.60;;;1.10;;
19225;SDS011;9747;48.536;12.522;2023-04-25T07:55:51;1.13;;;1.13;;
19225;SDS011;9747;48.536;12.522;2023-04-25T07:58:19;1.42;;;1.13;;
19225;SDS011;9747;48.536;12.522;2023-04-25T08:00:50;1.00;;;1.00;;
19225;SDS011;9747;48.536;12.522;2023-04-25T08:03:40;0.85;;;0.85;;
19225;SDS011;9747;48.536;12.522;2023-04-25T08:06:14;1.05;;;1.05;;
19225;SDS011;9747;48.536;12.522;2023-04-25T08:09:02;1.10;;;1.10;;
19225;SDS011;9747;48.536;12.522;2023-04-25T08:11:37;1.40;;;1.10;;
19225;SDS011;9747;48.536;12.522;2023-04-25T08:14:07;1.20;;;0.90;;
19225;SDS011;9747;48.536;12.522;2023-04-25T08:17:07;0.93;;;0.90;;
19225;SDS011;9747;48.536;12.522;2023-04-25T08:19:48;1.00;;;1.00;;
19225;SDS011;9747;48.536;12.522;2023-04-25T08:22:30;1.20;;;1.10;;
19225;SDS011;9747;48.536;12.522;2023-04-25T08:25:30;1.10;;;1.00;;
19225;SDS011;9747;48.536;12.522;2023-04-25T08:28:27;0.93;;;0.93;;
19225;SDS011;9747;48.536;12.522;2023-04-25T08:31:03;1.00;;;1.00;;
19225;SDS011;9747;48.536;12.522;2023-04-25T08:34:15;0.90;;;0.90;;
19225;SDS011;9747;48.536;12.522;2023-04-25T08:36:55;0.90;;;0.90;;
19225;SDS011;9747;48.536;12.522;2023-04-25T08:39:44;1.15;;;1.00;;
19225;SDS011;9747;48.536;12.522;2023-04-25T08:42:35;1.20;;;1.20;;
19225;SDS011;9747;48.536;12.522;2023-04-25T08:45:26;0.90;;;0.90;;
19225;SDS011;9747;48.536;12.522;2023-04-25T08:48:04;0.88;;;0.88;;
19225;SDS011;9747;48.536;12.522;2023-04-25T08:50:36;0.90;;;0.90;;
19225;SDS011;9747;48.536;12.522;2023-04-25T08:53:04;0.98;;;0.93;;
19225;SDS011;9747;48.536;12.522;2023-04-25T08:55:38;0.90;;;0.90;;
19225;SDS011;9747;48.536;12.522;2023-04-25T08:58:09;0.90;;;0.90;;
19225;SDS011;9747;48.536;12.522;2023-04-25T09:00:39;1.10;;;1.10;;
19225;SDS011;9747;48.536;12.522;2023-04-25T09:03:07;1.17;;;1.08;;
19225;SDS011;9747;48.536;12.522;2023-04-25T09:05:34;1.20;;;1.10;;
19225;SDS011;9747;48.536;12.522;2023-04-25T09:08:02;0.90;;;0.90;;
19225;SDS011;9747;48.536;12.522;2023-04-25T09:10:30;0.90;;;0.90;;
19225;SDS011;9747;48.536;12.522;2023-04-25T09:13:04;0.90;;;0.90;;
19225;SDS011;9747;48.536;12.522;2023-04-25T09:15:50;0.80;;;0.80;;
19225;SDS011;9747;48.536;12.522;2023-04-25T09:18:43;0.90;;;0.90;;
19225;SDS011;9747;48.536;12.522;2023-04-25T09:21:11;0.90;;;0.90;;
19225;SDS011;9747;48.536;12.522;2023-04-25T09:23:39;0.90;;;0.90;;
19225;SDS011;9747;48.536;12.522;2023-04-25T09:26:13;0.90;;;0.90;;
19225;SDS011;9747;48.536;12.522;2023-04-25T09:28:43;1.15;;;1.00;;
19225;SDS011;9747;48.536;12.522;2023-04-25T09:31:20;0.82;;;0.82;;
19225;SDS011;9747;48.536;12.522;2023-04-25T09:33:50;0.70;;;0.70;;
19225;SDS011;9747;48.536;12.522;2023-04-25T09:36:27;1.02;;;1.02;;
19225;SDS011;9747;48.536;12.522;2023-04-25T09:39:26;0.70;;;0.70;;
19225;SDS011;9747;48.536;12.522;2023-04-25T09:42:03;0.90;;;0.90;;
19225;SDS011;9747;48.536;12.522;2023-04-25T09:44:33;0.90;;;0.90;;
19225;SDS011;9747;48.536;12.522;2023-04-25T09:47:02;0.93;;;0.90;;
19225;SDS011;9747;48.536;12.522;2023-04-25T09:49:31;1.10;;;1.10;;
19225;SDS011;9747;48.536;12.522;2023-04-25T09:52:03;0.80;;;0.80;;
19225;SDS011;9747;48.536;12.522;2023-04-25T09:54:37;0.80;;;0.80;;
19225;SDS011;9747;48.536;12.522;2023-04-25T09:57:12;1.10;;;1.00;;
19225;SDS011;9747;48.536;12.522;2023-04-25T09:59:45;0.80;;;0.80;;
19225;SDS011;9747;48.536;12.522;2023-04-25T10:02:16;0.85;;;0.85;;
19225;SDS011;9747;48.536;12.522;2023-04-25T10:04:47;0.70;;;0.70;;
19225;SDS011;9747;48.536;12.522;2023-04-25T10:07:23;1.00;;;1.00;;
19225;SDS011;9747;48.536;12.522;2023-04-25T10:09:54;0.82;;;0.80;;
19225;SDS011;9747;48.536;12.522;2023-04-25T10:12:27;0.77;;;0.77;;
19225;SDS011;9747;48.536;12.522;2023-04-25T10:14:54;0.65;;;0.65;;
19225;SDS011;9747;48.536;12.522;2023-04-25T10:17:24;0.90;;;0.90;;
19225;SDS011;9747;48.536;12.522;2023-04-25T10:19:53;0.98;;;0.98;;
19225;SDS011;9747;48.536;12.522;2023-04-25T10:22:23;0.80;;;0.80;;
19225;SDS011;9747;48.536;12.522;2023-04-25T10:24:55;0.60;;;0.60;;
19225;SDS011;9747;48.536;12.522;2023-04-25T10:27:23;0.80;;;0.80;;
19225;SDS011;9747;48.536;12.522;2023-04-25T10:30:00;0.85;;;0.85;;
19225;SDS011;9747;48.536;12.522;2023-04-25T10:32:31;0.80;;;0.80;;
19225;SDS011;9747;48.536;12.522;2023-04-25T10:35:09;1.98;;;0.80;;
19225;SDS011;9747;48.536;12.522;2023-04-25T10:37:50;0.90;;;0.90;;
19225;SDS011;9747;48.536;12.522;2023-04-25T10:40:24;1.13;;;1.13;;
19225;SDS011;9747;48.536;12.522;2023-04-25T10:42:52;0.80;;;0.80;;
19225;SDS011;9747;48.536;12.522;2023-04-25T10:45:19;0.75;;;0.75;;
19225;SDS011;9747;48.536;12.522;2023-04-25T10:47:48;0.70;;;0.70;;
19225;SDS011;9747;48.536;12.522;2023-04-25T10:50:16;0.80;;;0.80;;
19225;SDS011;9747;48.536;12.522;2023-04-25T10:52:43;0.80;;;0.80;;
19225;SDS011;9747;48.536;12.522;2023-04-25T10:55:11;0.82;;;0.75;;
19225;SDS011;9747;48.536;12.522;2023-04-25T10:57:40;0.70;;;0.70;;
19225;SDS011;9747;48.536;12.522;2023-04-25T11:00:10;0.88;;;0.88;;
19225;SDS011;9747;48.536;12.522;2023-04-25T11:02:41;0.70;;;0.70;;
19225;SDS011;9747;48.536;12.522;2023-04-25T11:05:11;0.80;;;0.80;;
19225;SDS011;9747;48.536;12.522;2023-04-25T11:07:49;0.77;;;0.77;;
19225;SDS011;9747;48.536;12.522;2023-04-25T11:10:19;0.75;;;0.75;;
19225;SDS011;9747;48.536;12.522;2023-04-25T11:12:47;0.70;;;0.70;;
19225;SDS011;9747;48.536;12.522;2023-04-25T11:15:15;0.80;;;0.80;;
19225;SDS011;9747;48.536;12.522;2023-04-25T11:17:42;0.80;;;0.80;;
19225;SDS011;9747;48.536;12.522;2023-04-25T11:20:13;0.88;;;0.88;;
19225;SDS011;9747;48.536;12.522;2023-04-25T11:22:41;0.90;;;0.90;;
19225;SDS011;9747;48.536;12.522;2023-04-25T11:25:09;0.65;;;0.65;;
19225;SDS011;9747;48.536;12.522;2023-04-25T11:27:39;0.63;;;0.63;;
19225;SDS011;9747;48.536;12.522;2023-04-25T11:30:17;0.70;;;0.70;;
19225;SDS011;9747;48.536;12.522;2023-04-25T11:32:46;0.75;;;0.75;;
19225;SDS011;9747;48.536;12.522;2023-04-25T11:35:15;0.85;;;0.85;;
19225;SDS011;9747;48.536;12.522;2023-04-25T11:37:43;0.70;;;0.70;;
19225;SDS011;9747;48.536;12.522;2023-04-25T11:40:11;0.70;;;0.70;;
19225;SDS011;9747;48.536;12.522;2023-04-25T11:42:39;0.70;;;0.70;;
19225;SDS011;9747;48.536;12.522;2023-04-25T11:45:09;0.70;;;0.70;;
19225;SDS011;9747;48.536;12.522;2023-04-25T11:47:37;0.73;;;0.73;;
19225;SDS011;9747;48.536;12.522;2023-04-25T11:50:05;0.80;;;0.80;;
19225;SDS011;9747;48.536;12.522;2023-04-25T11:52:36;0.77;;;0.77;;
19225;SDS011;9747;48.536;12.522;2023-04-25T11:55:06;0.80;;;0.80;;
19225;SDS011;9747;48.536;12.522;2023-04-25T11:57:35;0.82;;;0.82;;
19225;SDS011;9747;48.536;12.522;2023-04-25T12:00:10;0.80;;;0.80;;
19225;SDS011;9747;48.536;12.522;2023-04-25T12:02:40;0.73;;;0.73;;
19225;SDS011;9747;48.536;12.522;2023-04-25T12:05:08;0.73;;;0.73;;
19225;SDS011;9747;48.536;12.522;2023-04-25T12:07:38;0.75;;;0.75;;
19225;SDS011;9747;48.536;12.522;2023-04-25T12:10:07;0.80;;;0.80;;
19225;SDS011;9747;48.536;12.522;2023-04-25T12:12:36;0.70;;;0.70;;
19225;SDS011;9747;48.536;12.522;2023-04-25T12:15:08;0.70;;;0.70;;
19225;SDS011;9747;48.536;12.522;2023-04-25T12:17:37;0.70;;;0.70;;
19225;SDS011;9747;48.536;12.522;2023-04-25T12:20:06;0.63;;;0.63;;
19225;SDS011;9747;48.536;12.522;2023-04-25T12:22:35;0.80;;;0.80;;
19225;SDS011;9747;48.536;12.522;2023-04-25T12:25:09;0.65;;;0.65;;
19225;SDS011;9747;48.536;12.522;2023-04-25T12:27:38;0.60;;;0.60;;
19225;SDS011;9747;48.536;12.522;2023-04-25T12:30:07;0.75;;;0.75;;
19225;SDS011;9747;48.536;12.522;2023-04-25T12:32:36;0.80;;;0.80;;
19225;SDS011;9747;48.536;12.522;2023-04-25T12:35:04;0.68;;;0.68;;
19225;SDS011;9747;48.536;12.522;2023-04-25T12:37:33;0.70;;;0.70;;
19225;SDS011;9747;48.536;12.522;2023-04-25T12:40:01;0.73;;;0.73;;
19225;SDS011;9747;48.536;12.522;2023-04-25T12:42:31;0.80;;;0.80;;
19225;SDS011;9747;48.536;12.522;2023-04-25T12:44:59;0.70;;;0.70;;
19225;SDS011;9747;48.536;12.522;2023-04-25T12:47:26;0.70;;;0.70;;
19225;SDS011;9747;48.536;12.522;2023-04-25T12:49:53;0.70;;;0.70;;
19225;SDS011;9747;48.536;12.522;2023-04-25T12:52:21;0.68;;;0.68;;
19225;SDS011;9747;48.536;12.522;2023-04-25T12:54:48;0.63;;;0.63;;
19225;SDS011;9747;48.536;12.522;2023-04-25T12:57:17;0.70;;;0.70;;
19225;SDS011;9747;48.536;12.522;2023-04-25T12:59:45;0.75;;;0.75;;
19225;SDS011;9747;48.536;12.522;2023-04-25T13:02:12;0.60;;;0.60;;
19225;SDS011;9747;48.536;12.522;2023-04-25T13:04:39;0.65;;;0.65;;
19225;SDS011;9747;48.536;12.522;2023-04-25T13:07:07;0.80;;;0.80;;
19225;SDS011;9747;48.536;12.522;2023-04-25T13:09:34;0.60;;;0.60;;
19225;SDS011;9747;48.536;12.522;2023-04-25T13:12:02;0.70;;;0.70;;
19225;SDS011;9747;48.536;12.522;2023-04-25T13:14:31;0.60;;;0.60;;
19225;SDS011;9747;48.536;12.522;2023-04-25T13:16:59;0.57;;;0.57;;
19225;SDS011;9747;48.536;12.522;2023-04-25T13:19:26;0.80;;;0.80;;
19225;SDS011;9747;48.536;12.522;2023-04-25T13:21:53;0.50;;;0.50;;
19225;SDS011;9747;48.536;12.522;2023-04-25T13:24:21;0.77;;;0.77;;
19225;SDS011;9747;48.536;12.522;2023-04-25T13:26:48;0.75;;;0.60;;
19225;SDS011;9747;48.536;12.522;2023-04-25T13:29:16;0.80;;;0.80;;
19225;SDS011;9747;48.536;12.522;2023-04-25T13:31:44;0.57;;;0.57;;
19225;SDS011;9747;48.536;12.522;2023-04-25T13:34:12;0.70;;;0.70;;
19225;SDS011;9747;48.536;12.522;2023-04-25T13:36:39;0.70;;;0.70;;
19225;SDS011;9747;48.536;12.522;2023-04-25T13:39:07;0.70;;;0.70;;
19225;SDS011;9747;48.536;12.522;2023-04-25T13:41:34;0.70;;;0.70;;
19225;SDS011;9747;48.536;12.522;2023-04-25T13:44:01;0.55;;;0.55;;
19225;SDS011;9747;48.536;12.522;2023-04-25T13:46:29;0.80;;;0.80;;
19225;SDS011;9747;48.536;12.522;2023-04-25T13:48:58;1.00;;;0.60;;
19225;SDS011;9747;48.536;12.522;2023-04-25T13:51:26;0.60;;;0.60;;
19225;SDS011;9747;48.536;12.522;2023-04-25T13:53:53;0.63;;;0.63;;
19225;SDS011;9747;48.536;12.522;2023-04-25T13:56:21;0.70;;;0.70;;
19225;SDS011;9747;48.536;12.522;2023-04-25T13:58:48;0.63;;;0.63;;
19225;SDS011;9747;48.536;12.522;2023-04-25T14:01:16;0.68;;;0.68;;
19225;SDS011;9747;48.536;12.522;2023-04-25T14:03:45;0.70;;;0.70;;
19225;SDS011;9747;48.536;12.522;2023-04-25T14:06:14;0.70;;;0.70;;
19225;SDS011;9747;48.536;12.522;2023-04-25T14:08:47;0.70;;;0.70;;
19225;SDS011;9747;48.536;12.522;2023-04-25T14:11:15;0.80;;;0.80;;
19225;SDS011;9747;48.536;12.522;2023-04-25T14:13:43;0.85;;;0.85;;
19225;SDS011;9747;48.536;12.522;2023-04-25T14:16:10;0.80;;;0.80;;
19225;SDS011;9747;48.536;12.522;2023-04-25T14:18:38;0.90;;;0.90;;
19225;SDS011;9747;48.536;12.522;2023-04-25T14:21:06;0.70;;;0.70;;
19225;SDS011;9747;48.536;12.522;2023-04-25T14:23:36;0.90;;;0.90;;
19225;SDS011;9747;48.536;12.522;2023-04-25T14:26:03;1.00;;;1.00;;
19225;SDS011;9747;48.536;12.522;2023-04-25T14:28:31;0.90;;;0.90;;
19225;SDS011;9747;48.536;12.522;2023-04-25T14:30:58;1.00;;;0.90;;
19225;SDS011;9747;48.536;12.522;2023-04-25T14:33:26;0.80;;;0.80;;
19225;SDS011;9747;48.536;12.522;2023-04-25T14:35:53;0.90;;;0.90;;
19225;SDS011;9747;48.536;12.522;2023-04-25T14:38:21;2.42;;;1.10;;
19225;SDS011;9747;48.536;12.522;2023-04-25T14:40:52;0.73;;;0.73;;
19225;SDS011;9747;48.536;12.522;2023-04-25T14:43:20;0.80;;;0.80;;
19225;SDS011;9747;48.536;12.522;2023-04-25T14:45:47;0.75;;;0.75;;
19225;SDS011;9747;48.536;12.522;2023-04-25T14:48:14;0.85;;;0.85;;
19225;SDS011;9747;48.536;12.522;2023-04-25T14:50:44;0.80;;;0.80;;
19225;SDS011;9747;48.536;12.522;2023-04-25T14:53:11;1.30;;;0.82;;
19225;SDS011;9747;48.536;12.522;2023-04-25T14:55:39;1.80;;;1.00;;
19225;SDS011;9747;48.536;12.522;2023-04-25T14:58:09;1.30;;;1.17;;
19225;SDS011;9747;48.536;12.522;2023-04-25T15:00:36;1.48;;;1.00;;
19225;SDS011;9747;48.536;12.522;2023-04-25T15:03:04;2.33;;;0.80;;
19225;SDS011;9747;48.536;12.522;2023-04-25T15:05:32;3.28;;;0.93;;
19225;SDS011;9747;48.536;12.522;2023-04-25T15:08:01;0.90;;;0.90;;
19225;SDS011;9747;48.536;12.522;2023-04-25T15:10:29;2.20;;;1.00;;
19225;SDS011;9747;48.536;12.522;2023-04-25T15:12:57;2.38;;;0.90;;
19225;SDS011;9747;48.536;12.522;2023-04-25T15:15:25;2.28;;;0.80;;